Terminal Aerodrome Forecast
Issued by NWS

Home | Current Version | Previous Version | Text Only | Print | Product List | Glossary On
Versions: 1 2 3 4 5 6 7 8 9 10 11 12 13 14 15 16 17
000
FTUS42 KJAX 251725
TAFVQQ
TAF
KVQQ 251725Z 2518/2618 25012G18KT 6SM SHRA VCTS SCT020CB OVC040
      TEMPO 2518/2520 2SM +TSRA BKN015CB OVC030
     FM252100 22012G18KT P6SM VCSH BKN030 BKN120 OVC250
     FM260200 22010KT P6SM VCSH SCT025 BKN090 OVC200=

USA.gov is the U.S. government's official web portal to all federal, state and local government web resources and services.